Time;durP1;ratioP1;P1;durP2;ratioP2;P2;SDS_P1;SDS_P2;PMS_P1;PMS_P2;Temp;Humidity;BMP_temperature;BMP_pressure;BME280_temperature;BME280_humidity;BME280_pressure;Samples;Min_cycle;Max_cycle;Signal;HPM_P1;HPM_P2
2022/05/05 00:00:06;;;;;;;8.32;5.75;;;;;;;14.17;92.01;100656.56;5590225;31;34307;-66
2022/05/05 00:03:09;;;;;;;7.85;5.37;;;;;;;14.19;91.16;100659.84;5589459;31;34292;-65
2022/05/05 00:06:12;;;;;;;8.80;5.20;;;;;;;14.21;90.86;100660.50;5589862;31;34586;-65
2022/05/05 00:09:15;;;;;;;9.20;4.82;;;;;;;14.22;90.92;100659.50;5589526;31;33528;-66
2022/05/05 00:15:39;;;;;;;8.27;4.97;;;;;;;14.15;91.30;100653.25;5590208;31;34769;-67
2022/05/05 00:18:41;;;;;;;9.48;6.15;;;;;;;14.19;91.60;100666.03;5590267;31;34525;-66
2022/05/05 00:21:44;;;;;;;9.82;5.95;;;;;;;14.11;92.10;100666.12;5589438;31;33399;-66
2022/05/05 00:24:47;;;;;;;8.88;5.12;;;;;;;14.38;93.59;100662.00;5590071;31;34235;-66
2022/05/05 00:27:49;;;;;;;9.00;5.37;;;;;;;14.32;94.36;100668.91;5590155;31;34487;-66
2022/05/05 00:30:52;;;;;;;8.38;5.32;;;;;;;14.16;96.21;100663.75;5590341;31;34208;-65
2022/05/05 00:33:55;;;;;;;8.07;5.05;;;;;;;14.25;95.95;100667.13;5589053;31;32781;-65
2022/05/05 00:36:57;;;;;;;14.05;5.62;;;;;;;13.98;97.66;100660.59;5590303;31;34873;-65
2022/05/05 00:40:00;;;;;;;8.38;5.05;;;;;;;14.06;97.68;100657.84;5589959;31;34159;-66
2022/05/05 00:43:04;;;;;;;8.00;5.15;;;;;;;13.94;98.26;100665.47;5590188;31;34684;-66
2022/05/05 00:46:06;;;;;;;7.32;5.30;;;;;;;13.89;99.44;100665.19;5589824;31;34345;-66
2022/05/05 00:49:09;;;;;;;8.15;4.57;;;;;;;13.94;99.11;100656.66;5590245;31;34332;-66
2022/05/05 00:52:12;;;;;;;6.93;5.30;;;;;;;13.86;99.08;100656.72;5589829;31;34897;-66
2022/05/05 00:55:14;;;;;;;9.18;5.75;;;;;;;13.79;99.79;100661.13;5589098;31;34166;-66
2022/05/05 00:58:18;;;;;;;7.95;5.70;;;;;;;13.87;100.00;100655.72;5589942;31;34220;-66
2022/05/05 01:01:22;;;;;;;7.07;5.37;;;;;;;13.79;100.00;100651.31;5590092;31;34823;-66
2022/05/05 01:04:25;;;;;;;7.53;5.60;;;;;;;13.74;100.00;100656.34;5589819;31;34343;-65
2022/05/05 01:07:28;;;;;;;7.60;5.70;;;;;;;13.82;100.00;100658.09;5590072;31;34896;-66
2022/05/05 01:10:32;;;;;;;7.87;5.68;;;;;;;13.83;100.00;100657.94;5589666;31;34422;-67
2022/05/05 01:13:39;;;;;;;7.65;5.68;;;;;;;13.75;100.00;100659.81;5589793;31;34274;-66
2022/05/05 01:16:43;;;;;;;9.05;5.57;;;;;;;13.75;100.00;100662.50;5589434;31;34130;-66
2022/05/05 01:19:45;;;;;;;7.57;5.80;;;;;;;13.70;100.00;100657.69;5588911;31;34868;-66
2022/05/05 01:22:52;;;;;;;10.27;5.72;;;;;;;13.69;100.00;100655.22;5588818;31;34164;-66
2022/05/05 01:29:16;;;;;;;8.13;5.60;;;;;;;13.71;100.00;100677.19;5589521;31;34269;-66
2022/05/05 01:32:19;;;;;;;10.93;6.15;;;;;;;13.62;100.00;100676.44;5588874;31;35488;-66
2022/05/05 01:35:22;;;;;;;7.68;5.40;;;;;;;13.75;100.00;100678.47;5589491;31;34121;-66
2022/05/05 01:38:30;;;;;;;8.68;5.68;;;;;;;13.62;100.00;100683.63;5589453;31;34460;-66
2022/05/05 01:41:36;;;;;;;7.55;5.53;;;;;;;13.70;100.00;100697.69;5588634;31;33613;-66
2022/05/05 01:44:38;;;;;;;9.30;6.30;;;;;;;13.74;100.00;100701.69;5589570;31;34296;-66
2022/05/05 01:47:41;;;;;;;7.57;5.65;;;;;;;13.60;100.00;100713.12;5589720;31;34239;-66
2022/05/05 01:50:44;;;;;;;8.63;6.22;;;;;;;13.32;100.00;100718.16;5588299;31;32672;-65
2022/05/05 01:53:47;;;;;;;6.75;5.45;;;;;;;13.22;100.00;100719.38;5589605;31;34309;-65
2022/05/05 01:56:50;;;;;;;8.52;5.50;;;;;;;13.20;100.00;100722.25;5589250;31;34224;-66
2022/05/05 01:59:52;;;;;;;7.68;5.43;;;;;;;13.18;100.00;100715.41;5589644;31;34137;-66
2022/05/05 02:02:56;;;;;;;7.65;5.90;;;;;;;13.16;100.00;100717.44;5589264;31;34139;-66
2022/05/05 02:05:59;;;;;;;8.73;6.00;;;;;;;13.18;100.00;100718.09;5589322;31;34181;-65
2022/05/05 02:09:01;;;;;;;7.87;5.50;;;;;;;13.18;100.00;100729.56;5589161;31;35641;-66
2022/05/05 02:12:05;;;;;;;7.62;5.57;;;;;;;13.21;100.00;100733.75;5589039;31;35524;-66
2022/05/05 02:15:09;;;;;;;7.05;5.18;;;;;;;13.24;100.00;100736.88;5589134;31;34174;-66
2022/05/05 02:18:15;;;;;;;11.27;5.50;;;;;;;13.27;100.00;100738.34;5588967;31;35481;-66
2022/05/05 02:21:18;;;;;;;6.85;5.18;;;;;;;13.33;100.00;100751.78;5575010;31;33265;-66
2022/05/05 02:24:21;;;;;;;9.45;5.78;;;;;;;13.32;100.00;100754.63;5588893;31;34839;-66
2022/05/05 02:27:24;;;;;;;7.35;5.43;;;;;;;13.22;100.00;100751.34;5575279;31;33890;-66
2022/05/05 02:30:28;;;;;;;6.90;5.10;;;;;;;13.24;100.00;100750.19;5588513;31;34205;-66
2022/05/05 02:33:31;;;;;;;9.77;5.10;;;;;;;13.22;100.00;100743.38;5588056;31;34630;-66
2022/05/05 02:39:59;;;;;;;7.70;5.18;;;;;;;13.22;100.00;100741.53;5587928;31;33849;-66
2022/05/05 02:43:02;;;;;;;6.45;4.90;;;;;;;13.15;100.00;100740.59;5587820;31;34076;-66
2022/05/05 02:46:04;;;;;;;7.37;5.18;;;;;;;13.12;100.00;100735.59;5588323;31;34236;-67
2022/05/05 02:49:07;;;;;;;8.70;5.15;;;;;;;13.07;100.00;100736.09;5588501;31;34215;-66
2022/05/05 02:52:13;;;;;;;8.38;5.00;;;;;;;13.01;100.00;100728.81;5587859;31;34826;-66
2022/05/05 02:55:16;;;;;;;5.80;4.62;;;;;;;12.99;100.00;100728.16;5587751;31;32880;-66
2022/05/05 02:58:19;;;;;;;7.82;5.22;;;;;;;12.98;100.00;100731.00;5588803;31;34729;-67
2022/05/05 03:01:22;;;;;;;6.32;4.30;;;;;;;12.90;100.00;100731.03;5588189;31;34360;-67
2022/05/05 03:04:24;;;;;;;6.07;5.40;;;;;;;12.93;100.00;100731.50;5588145;31;34593;-66
2022/05/05 03:07:27;;;;;;;7.47;5.00;;;;;;;12.97;100.00;100732.00;5587400;31;32676;-66
2022/05/05 03:10:30;;;;;;;11.90;5.07;;;;;;;12.97;100.00;100740.00;5587319;31;34303;-67
2022/05/05 03:13:33;;;;;;;5.78;4.78;;;;;;;13.00;100.00;100740.47;5587286;31;34426;-66
2022/05/05 03:16:36;;;;;;;6.43;4.70;;;;;;;13.09;100.00;100738.59;5587975;31;34835;-67
2022/05/05 03:19:38;;;;;;;10.95;5.65;;;;;;;13.14;100.00;100730.94;5587250;31;32655;-67
2022/05/05 03:22:41;;;;;;;7.12;5.03;;;;;;;13.09;100.00;100741.25;5587785;31;34215;-66
2022/05/05 03:25:44;;;;;;;6.37;4.97;;;;;;;13.06;100.00;100742.44;5586896;31;33572;-66
2022/05/05 03:28:47;;;;;;;6.70;4.82;;;;;;;13.07;100.00;100736.09;5573647;31;33343;-66
2022/05/05 03:31:50;;;;;;;8.05;4.80;;;;;;;13.13;100.00;100736.44;5587673;31;34163;-67
2022/05/05 03:34:52;;;;;;;12.30;4.78;;;;;;;13.13;100.00;100731.09;5587553;31;34203;-67
2022/05/05 03:37:55;;;;;;;6.53;4.78;;;;;;;13.20;100.00;100727.56;5586754;31;34244;-67
2022/05/05 03:40:58;;;;;;;6.95;4.87;;;;;;;13.22;100.00;100722.88;5588052;31;34933;-66
2022/05/05 03:44:02;;;;;;;7.57;4.80;;;;;;;13.23;100.00;100721.87;5590321;31;34554;-66
2022/05/05 03:47:05;;;;;;;8.95;4.82;;;;;;;13.30;100.00;100714.84;5590467;31;34507;-66
2022/05/05 03:50:09;;;;;;;8.65;5.00;;;;;;;13.45;100.00;100709.59;5589611;31;32731;-66
2022/05/05 03:53:11;;;;;;;11.63;5.45;;;;;;;13.49;100.00;100693.06;5590242;31;34882;-67
2022/05/05 03:56:14;;;;;;;7.95;5.70;;;;;;;13.57;100.00;100693.97;5589164;31;33010;-66
2022/05/05 03:59:17;;;;;;;8.77;5.40;;;;;;;13.51;100.00;100684.87;5590207;31;34237;-66
2022/05/05 04:02:19;;;;;;;6.78;5.50;;;;;;;13.50;100.00;100677.91;5589416;31;33009;-67
2022/05/05 04:05:22;;;;;;;8.18;6.05;;;;;;;13.47;100.00;100679.06;5590129;31;34166;-66
2022/05/05 04:08:26;;;;;;;9.32;5.93;;;;;;;13.45;100.00;100672.28;5589481;31;32678;-67
2022/05/05 04:11:30;;;;;;;8.63;6.00;;;;;;;13.42;100.00;100678.78;5576157;31;32884;-67
2022/05/05 04:14:34;;;;;;;6.85;5.47;;;;;;;13.22;100.00;100690.91;5589302;31;33542;-67
2022/05/05 04:17:36;;;;;;;6.78;5.43;;;;;;;13.19;100.00;100701.09;5589943;31;34792;-67
2022/05/05 04:20:41;;;;;;;7.30;5.28;;;;;;;13.26;100.00;100715.37;5590224;31;34201;-67
2022/05/05 04:23:44;;;;;;;9.38;5.70;;;;;;;13.28;100.00;100716.03;5589965;31;34781;-67
2022/05/05 04:26:47;;;;;;;6.57;5.50;;;;;;;13.39;100.00;100718.28;5590182;31;34483;-67
2022/05/05 04:29:50;;;;;;;9.45;5.47;;;;;;;13.34;100.00;100726.81;5590023;31;35469;-67
2022/05/05 04:32:53;;;;;;;7.40;5.75;;;;;;;13.41;100.00;100729.56;5589327;31;32727;-67
2022/05/05 04:35:56;;;;;;;7.18;5.32;;;;;;;13.44;100.00;100742.56;5589215;31;33505;-67
2022/05/05 04:38:59;;;;;;;7.25;5.12;;;;;;;13.54;100.00;100735.16;5576093;31;33727;-66
2022/05/05 04:42:04;;;;;;;8.15;5.65;;;;;;;13.63;100.00;100754.59;5589689;31;34196;-67
2022/05/05 04:45:07;;;;;;;7.95;5.60;;;;;;;13.76;100.00;100752.97;5589753;31;34894;-67
2022/05/05 04:48:18;;;;;;;6.53;4.90;;;;;;;13.91;100.00;100761.84;5588750;31;33010;-67
2022/05/05 04:51:21;;;;;;;6.68;5.43;;;;;;;14.04;100.00;100755.87;5588940;31;32762;-67
2022/05/05 04:54:24;;;;;;;7.72;5.30;;;;;;;14.26;100.00;100760.34;5589621;31;34219;-66
2022/05/05 04:57:27;;;;;;;6.87;5.20;;;;;;;14.44;100.00;100754.69;5589625;31;34821;-66
2022/05/05 05:00:30;;;;;;;12.85;5.43;;;;;;;14.45;99.04;100763.53;5589169;31;33792;-67
2022/05/05 05:03:32;;;;;;;9.98;5.07;;;;;;;14.54;99.07;100762.44;5588932;31;32775;-66
2022/05/05 05:06:35;;;;;;;8.43;5.18;;;;;;;14.56;98.93;100763.09;5589470;31;34869;-67
2022/05/05 05:09:38;;;;;;;10.75;5.35;;;;;;;14.55;96.59;100750.75;5588950;31;32734;-67
2022/05/05 05:12:41;;;;;;;7.50;5.07;;;;;;;14.60;96.82;100756.34;5589588;31;34878;-66
2022/05/05 05:15:43;;;;;;;6.87;4.95;;;;;;;14.78;94.34;100757.62;5588727;31;32845;-67
2022/05/05 05:18:47;;;;;;;8.63;4.80;;;;;;;14.69;93.60;100749.91;5589607;31;34907;-67
2022/05/05 05:21:49;;;;;;;6.15;4.15;;;;;;;14.70;92.47;100749.72;5588739;31;33272;-66
2022/05/05 05:24:52;;;;;;;6.35;4.35;;;;;;;14.73;90.77;100756.53;5589290;31;34279;-67
2022/05/05 05:27:57;;;;;;;10.15;4.50;;;;;;;14.85;92.32;100763.06;5588833;31;32847;-67
2022/05/05 05:31:12;;;;;;;5.60;4.35;;;;;;;14.92;93.87;100763.13;5588382;31;32657;-67
2022/05/05 05:34:15;;;;;;;6.75;4.55;;;;;;;14.95;95.09;100760.94;5587949;31;33472;-67
2022/05/05 05:37:18;;;;;;;6.82;4.72;;;;;;;14.70;98.48;100772.94;5588324;31;34966;-68
2022/05/05 05:40:21;;;;;;;7.15;5.28;;;;;;;14.36;98.58;100776.13;5589489;31;34194;-69
2022/05/05 05:43:23;;;;;;;9.00;5.65;;;;;;;13.82;100.00;100772.78;5589017;31;35757;-67
2022/05/05 05:46:26;;;;;;;9.02;6.10;;;;;;;13.77;100.00;100773.31;5587877;31;34285;-68
2022/05/05 05:49:29;;;;;;;8.18;5.53;;;;;;;13.81;100.00;100774.59;5587972;31;32667;-68
2022/05/05 05:52:33;;;;;;;7.65;5.80;;;;;;;13.87;100.00;100778.41;5588033;31;33345;-68
2022/05/05 05:55:36;;;;;;;10.25;6.43;;;;;;;14.11;100.00;100777.34;5587861;31;33965;-67
2022/05/05 05:58:38;;;;;;;8.07;6.18;;;;;;;14.11;100.00;100782.69;5588553;31;34960;-68
2022/05/05 06:05:03;;;;;;;8.60;5.47;;;;;;;14.50;100.00;100778.00;5588133;31;34887;-68
2022/05/05 06:08:06;;;;;;;8.15;6.12;;;;;;;14.86;100.00;100788.78;5588148;31;34335;-67
2022/05/05 06:11:11;;;;;;;8.05;5.55;;;;;;;14.90;100.00;100795.41;5587747;31;34918;-68
2022/05/05 06:14:13;;;;;;;9.38;5.55;;;;;;;14.93;100.00;100788.84;5588460;31;34825;-67
2022/05/05 06:17:16;;;;;;;8.43;4.80;;;;;;;14.94;100.00;100782.50;5587884;31;33049;-67
2022/05/05 06:20:19;;;;;;;7.75;5.40;;;;;;;14.90;100.00;100786.56;5588744;31;34391;-67
2022/05/05 06:23:22;;;;;;;8.20;5.60;;;;;;;14.91;100.00;100786.34;5588132;31;33900;-67
2022/05/05 06:26:27;;;;;;;7.70;5.60;;;;;;;14.98;100.00;100791.78;5588353;31;34279;-68
2022/05/05 06:29:30;;;;;;;9.15;5.90;;;;;;;14.86;100.00;100787.94;5587397;31;33595;-67
2022/05/05 06:32:34;;;;;;;8.90;6.05;;;;;;;15.14;98.59;100800.44;5587572;31;34284;-67
2022/05/05 06:35:37;;;;;;;8.57;5.70;;;;;;;15.54;96.00;100801.72;5588379;31;34637;-67
2022/05/05 06:38:40;;;;;;;6.82;5.80;;;;;;;15.60;98.70;100803.66;5587176;31;32685;-67
2022/05/05 06:41:48;;;;;;;8.30;5.03;;;;;;;15.73;96.04;100802.13;5587773;31;32810;-67
2022/05/05 06:44:50;;;;;;;8.65;5.72;;;;;;;15.74;92.95;100801.09;5587972;31;34771;-67
2022/05/05 06:47:54;;;;;;;5.68;4.93;;;;;;;15.88;95.47;100809.06;5587122;31;32686;-67
2022/05/05 06:50:57;;;;;;;8.18;4.90;;;;;;;15.75;94.36;100802.75;5587763;31;34305;-67
2022/05/05 06:54:00;;;;;;;6.62;5.07;;;;;;;15.95;93.19;100801.94;5586889;31;32836;-66
2022/05/05 06:57:03;;;;;;;8.80;5.30;;;;;;;16.05;90.68;100804.28;5587187;31;32667;-67
2022/05/05 07:00:06;;;;;;;9.27;5.80;;;;;;;16.21;95.64;100805.84;5588037;31;34814;-68
2022/05/05 07:03:09;;;;;;;7.82;5.40;;;;;;;16.74;91.85;100815.12;5587308;31;33598;-67
2022/05/05 07:06:11;;;;;;;8.00;5.12;;;;;;;17.15;87.39;100821.28;5587305;31;33294;-67
2022/05/05 07:12:36;;;;;;;8.95;5.45;;;;;;;19.34;79.77;100818.44;5587061;31;32725;-66
2022/05/05 07:15:38;;;;;;;6.78;5.00;;;;;;;19.82;73.52;100818.81;5587510;31;33395;-67
2022/05/05 07:18:41;;;;;;;7.12;4.90;;;;;;;19.85;71.57;100826.44;5590659;31;34304;-67
2022/05/05 07:21:44;;;;;;;7.72;4.60;;;;;;;19.36;70.50;100819.06;5589712;31;32764;-67
2022/05/05 07:24:47;;;;;;;7.32;3.95;;;;;;;19.17;71.09;100820.75;5590299;31;34958;-66
2022/05/05 07:27:50;;;;;;;5.07;3.62;;;;;;;20.18;68.52;100826.22;5590917;31;34825;-67
2022/05/05 07:30:53;;;;;;;6.28;3.50;;;;;;;20.44;64.73;100825.16;5590510;31;34810;-67
2022/05/05 07:33:57;;;;;;;8.73;4.07;;;;;;;20.23;66.21;100827.22;5590546;31;34211;-67
2022/05/05 07:37:01;;;;;;;4.87;3.62;;;;;;;21.20;62.27;100820.25;5589758;31;32778;-67
2022/05/05 07:40:05;;;;;;;5.05;3.05;;;;;;;19.98;63.53;100820.97;5589809;31;33668;-67
2022/05/05 07:43:09;;;;;;;6.32;3.30;;;;;;;20.04;63.40;100820.09;5589674;31;32547;-67
2022/05/05 07:46:12;;;;;;;5.85;2.92;;;;;;;20.34;61.96;100814.91;5589422;31;32676;-67
2022/05/05 07:49:15;;;;;;;4.35;2.85;;;;;;;21.89;56.12;100822.38;5589439;31;34461;-67
2022/05/05 07:52:17;;;;;;;4.18;2.70;;;;;;;22.65;54.09;100815.34;5590374;31;34352;-67
2022/05/05 07:55:20;;;;;;;4.20;2.60;;;;;;;22.79;54.29;100822.16;5590439;31;34960;-67
2022/05/05 07:58:23;;;;;;;4.60;2.75;;;;;;;22.27;54.91;100824.72;5589582;31;33699;-67
2022/05/05 08:01:26;;;;;;;3.78;2.12;;;;;;;22.85;54.36;100823.94;5589376;31;32573;-67
2022/05/05 08:04:29;;;;;;;3.85;1.58;;;;;;;24.05;49.47;100818.41;5590085;31;35577;-67
2022/05/05 08:07:32;;;;;;;3.40;1.75;;;;;;;23.44;49.98;100828.09;5589311;31;33052;-67
2022/05/05 08:10:35;;;;;;;4.70;2.20;;;;;;;23.53;49.39;100829.41;5589931;31;35481;-68
2022/05/05 08:13:37;;;;;;;2.70;1.80;;;;;;;23.01;50.22;100842.12;5590045;31;34806;-67
2022/05/05 08:16:40;;;;;;;2.80;2.00;;;;;;;24.46;47.26;100845.12;5589188;31;33492;-66
2022/05/05 08:19:43;;;;;;;6.12;1.90;;;;;;;24.89;47.04;100839.00;5589053;31;33633;-67
2022/05/05 08:22:46;;;;;;;3.70;1.92;;;;;;;23.94;49.66;100839.09;5590021;31;34597;-68
2022/05/05 08:29:10;;;;;;;4.37;2.25;;;;;;;22.88;50.70;100847.78;5588818;31;32972;-67
2022/05/05 08:32:13;;;;;;;3.72;1.87;;;;;;;21.62;53.49;100856.25;5588910;31;34156;-67
2022/05/05 08:35:16;;;;;;;4.78;1.70;;;;;;;21.35;53.71;100858.44;5590105;31;34335;-68
2022/05/05 08:38:18;;;;;;;3.58;2.05;;;;;;;21.72;51.99;100858.38;5589830;31;34127;-67
2022/05/05 08:41:21;;;;;;;4.50;1.85;;;;;;;22.07;52.37;100851.25;5589785;31;34132;-67
2022/05/05 08:44:24;;;;;;;11.55;1.70;;;;;;;23.48;47.34;100848.25;5589038;31;32953;-66
2022/05/05 08:47:32;;;;;;;3.20;1.83;;;;;;;25.10;43.26;100850.97;5588579;31;32914;-67
2022/05/05 08:50:40;;;;;;;2.50;1.85;;;;;;;26.75;39.93;100858.34;5589591;31;34182;-67
2022/05/05 08:53:52;;;;;;;2.00;1.70;;;;;;;25.95;40.35;100853.03;5589441;31;35020;-68
2022/05/05 08:56:55;;;;;;;3.12;1.62;;;;;;;27.10;37.96;100855.00;5589848;31;34200;-67
2022/05/05 08:59:58;;;;;;;2.47;1.77;;;;;;;26.50;39.16;100846.44;5589508;31;34105;-67
2022/05/05 09:03:04;;;;;;;2.78;1.70;;;;;;;27.16;37.84;100851.22;5588756;31;34014;-67
2022/05/05 09:06:07;;;;;;;1.65;1.55;;;;;;;27.93;35.20;100849.56;5588388;31;33085;-68
2022/05/05 09:09:27;;;;;;;5.28;1.90;;;;;;;26.63;37.89;100849.53;5589196;31;34323;-67
2022/05/05 09:12:32;;;;;;;1.90;1.60;;;;;;;28.85;35.37;100854.72;5589104;31;35132;-68
2022/05/05 09:15:37;;;;;;;2.95;1.35;;;;;;;29.32;32.33;100854.31;5589184;31;34277;-66
2022/05/05 09:18:40;;;;;;;2.65;1.70;;;;;;;27.84;33.77;100859.34;5589172;31;34676;-66
2022/05/05 09:21:46;;;;;;;2.53;1.50;;;;;;;27.95;33.83;100861.81;5589388;31;34860;-66
2022/05/05 09:24:52;;;;;;;1.85;1.60;;;;;;;26.38;37.94;100877.37;5589659;31;34113;-66
2022/05/05 09:27:54;;;;;;;3.42;1.90;;;;;;;24.44;42.00;100860.84;5588024;31;33567;-66
2022/05/05 09:31:10;;;;;;;2.72;1.90;;;;;;;26.95;36.28;100865.81;5588681;31;32824;-67
2022/05/05 09:34:19;;;;;;;6.05;1.48;;;;;;;27.97;36.44;100864.28;5591497;31;34932;-65
2022/05/05 09:37:22;;;;;;;5.55;2.08;;;;;;;29.84;32.19;100861.13;5591940;31;34831;-65
2022/05/05 09:40:28;;;;;;;4.37;1.60;;;;;;;30.08;31.82;100866.72;5587593;31;32611;-66
2022/05/05 09:43:31;;;;;;;2.87;1.62;;;;;;;27.21;34.79;100859.41;5589709;31;34667;-66
2022/05/05 09:46:34;;;;;;;1.90;1.60;;;;;;;24.43;40.60;100859.22;5588834;31;34846;-67
2022/05/05 09:49:37;;;;;;;5.82;1.73;;;;;;;25.05;39.91;100857.16;5588926;31;34151;-66
2022/05/05 09:59:30;;;;;;;2.12;1.60;;;;;;;28.02;34.92;100847.94;5589034;31;34781;-66
2022/05/05 10:06:05;;;;;;;3.45;1.92;;;;;;;31.77;29.12;100849.81;5587806;31;33610;-67
2022/05/05 10:09:12;;;;;;;2.28;1.85;;;;;;;32.30;28.07;100844.88;5588348;31;33602;-68
2022/05/05 10:12:18;;;;;;;3.53;2.17;;;;;;;31.85;29.05;100834.63;5588793;31;34285;-67
2022/05/05 10:15:21;;;;;;;3.08;1.85;;;;;;;32.65;27.45;100834.41;5588553;31;34194;-68
2022/05/05 10:18:24;;;;;;;8.60;1.50;;;;;;;31.65;28.42;100838.50;5574375;31;32857;-68
2022/05/05 10:21:30;;;;;;;4.05;1.62;;;;;;;30.80;29.40;100837.59;5588194;31;33967;-68
2022/05/05 10:24:43;;;;;;;2.65;1.50;;;;;;;30.91;29.10;100839.12;5587266;31;33134;-67
2022/05/05 10:27:46;;;;;;;3.53;1.60;;;;;;;33.07;26.64;100827.78;5588511;31;34983;-67
2022/05/05 10:30:49;;;;;;;3.05;1.58;;;;;;;34.23;25.29;100827.91;5587485;31;34019;-68
2022/05/05 10:33:59;;;;;;;1.65;1.12;;;;;;;33.52;25.13;100828.75;5588900;31;34506;-65
2022/05/05 10:37:10;;;;;;;2.80;1.00;;;;;;;33.69;24.08;100822.63;5587500;31;33393;-66
2022/05/05 10:40:13;;;;;;;2.30;1.20;;;;;;;34.23;22.94;100824.34;5588269;31;35485;-66
2022/05/05 10:43:29;;;;;;;1.50;0.95;;;;;;;34.39;23.01;100822.81;5587624;31;32566;-66
2022/05/05 10:46:52;;;;;;;1.73;1.20;;;;;;;31.61;25.66;100826.50;5587230;31;34281;-67
2022/05/05 10:49:55;;;;;;;4.03;1.40;;;;;;;34.29;22.45;100818.38;5587005;31;32776;-66
2022/05/05 10:52:59;;;;;;;1.73;1.00;;;;;;;31.93;25.28;100812.00;5590667;31;35014;-66
2022/05/05 10:56:05;;;;;;;1.40;1.08;;;;;;;34.62;22.15;100813.34;5590562;31;34385;-66
2022/05/05 10:59:09;;;;;;;1.48;0.90;;;;;;;35.15;21.56;100810.47;5590675;31;34137;-66
2022/05/05 11:02:19;;;;;;;2.25;1.20;;;;;;;32.31;24.00;100808.06;5589421;31;33275;-66
2022/05/05 11:05:42;;;;;;;1.33;1.08;;;;;;;33.05;23.53;100814.34;5589486;31;34055;-66
2022/05/05 11:08:53;;;;;;;1.73;1.33;;;;;;;32.13;24.06;100805.38;5589999;31;32849;-66
2022/05/05 11:12:19;;;;;;;1.20;1.08;;;;;;;32.45;23.19;100807.28;5590665;31;34518;-66
2022/05/05 11:22:51;;;;;;;1.45;1.35;;;;;;;34.86;21.38;100802.78;5590433;31;34651;-68
2022/05/05 11:25:54;;;;;;;3.30;1.30;;;;;;;33.82;21.02;100797.81;5590191;31;34153;-66
2022/05/05 11:28:58;;;;;;;2.50;1.00;;;;;;;32.74;22.81;100799.59;5589007;31;32942;-66
2022/05/05 11:32:04;;;;;;;3.17;1.08;;;;;;;31.99;24.35;100796.25;5589267;31;32929;-66
2022/05/05 11:35:10;;;;;;;2.00;1.10;;;;;;;32.81;23.65;100800.00;5590456;31;34133;-65
2022/05/05 11:38:13;;;;;;;1.62;1.20;;;;;;;31.82;24.98;100791.31;5589421;31;33111;-66
2022/05/05 11:41:18;;;;;;;2.83;1.20;;;;;;;30.15;26.50;100783.22;5590079;31;34878;-65
2022/05/05 11:44:22;;;;;;;1.87;1.23;;;;;;;31.88;24.83;100777.22;5590528;31;34329;-66
2022/05/05 11:47:25;;;;;;;1.25;0.90;;;;;;;32.11;25.75;100782.91;5588839;31;33974;-67
2022/05/05 11:50:28;;;;;;;1.80;1.40;;;;;;;35.04;21.66;100786.28;5589302;31;33924;-66
2022/05/05 11:53:31;;;;;;;2.55;1.30;;;;;;;34.11;21.72;100771.75;5589089;31;32942;-67
2022/05/05 11:56:36;;;;;;;2.78;1.30;;;;;;;33.33;23.07;100775.81;5590362;31;34916;-67
2022/05/05 12:03:00;;;;;;;3.15;1.50;;;;;;;30.72;24.66;100761.56;5588465;31;33644;-66
2022/05/05 12:06:03;;;;;;;1.27;1.15;;;;;;;27.78;29.28;100760.38;5589419;31;33397;-66
2022/05/05 12:09:09;;;;;;;5.35;1.50;;;;;;;30.12;25.77;100761.06;5590045;31;34297;-66
2022/05/05 12:12:23;;;;;;;2.22;1.55;;;;;;;30.70;25.79;100756.34;5589346;31;33044;-67
2022/05/05 12:15:27;;;;;;;1.83;1.30;;;;;;;34.47;21.63;100750.41;5588909;31;32800;-66
2022/05/05 12:18:29;;;;;;;3.05;1.52;;;;;;;33.63;21.89;100742.91;5589405;31;32559;-66
2022/05/05 12:21:32;;;;;;;2.58;1.35;;;;;;;32.29;24.36;100746.34;5589355;31;32850;-66
2022/05/05 12:24:35;;;;;;;3.65;1.30;;;;;;;31.52;24.24;100741.28;5590357;31;34255;-66
2022/05/05 12:27:39;;;;;;;1.70;1.30;;;;;;;30.42;26.53;100733.38;5590280;31;34843;-66
2022/05/05 12:30:43;;;;;;;1.77;1.33;;;;;;;34.35;23.49;100736.44;5590373;31;34838;-66
2022/05/05 12:33:45;;;;;;;2.05;1.30;;;;;;;31.77;24.33;100731.03;5588938;31;34739;-66
2022/05/05 12:36:49;;;;;;;3.95;1.37;;;;;;;35.52;21.80;100719.97;5589922;31;33969;-67
2022/05/05 12:40:09;;;;;;;3.83;1.40;;;;;;;36.76;20.03;100725.28;5576012;31;34017;-66
2022/05/05 12:43:17;;;;;;;1.60;1.23;;;;;;;33.80;22.11;100727.66;5589756;31;34341;-67
2022/05/05 12:46:19;;;;;;;5.25;1.55;;;;;;;35.80;18.99;100724.00;5589597;31;34918;-67
2022/05/05 12:49:35;;;;;;;1.95;1.40;;;;;;;36.36;17.59;100731.16;5589644;31;34933;-67
2022/05/05 12:59:47;;;;;;;7.28;1.20;;;;;;;39.59;15.68;100723.97;5589057;31;32950;-67
2022/05/05 13:02:52;;;;;;;2.08;1.08;;;;;;;39.02;16.35;100721.50;5588873;31;33653;-67
2022/05/05 13:05:55;;;;;;;2.12;1.37;;;;;;;38.18;17.68;100712.03;5589003;31;33194;-67
2022/05/05 13:09:18;;;;;;;3.80;1.58;;;;;;;32.79;22.28;100703.31;5589787;31;34830;-66
2022/05/05 13:12:22;;;;;;;1.40;1.10;;;;;;;31.15;24.83;100699.34;5589277;31;34968;-67
2022/05/05 13:15:25;;;;;;;2.03;1.40;;;;;;;30.79;24.75;100697.06;5588309;31;32830;-66
2022/05/05 13:18:27;;;;;;;5.53;1.50;;;;;;;30.78;24.81;100691.91;5588880;31;32713;-65
2022/05/05 13:21:36;;;;;;;2.67;1.37;;;;;;;28.80;27.67;100690.91;5588449;31;34237;-66
2022/05/05 13:24:39;;;;;;;2.03;1.20;;;;;;;30.88;25.61;100697.25;5589679;31;34424;-66
2022/05/05 13:27:41;;;;;;;3.17;1.67;;;;;;;33.86;21.89;100699.72;5589175;31;34147;-66
2022/05/05 13:30:44;;;;;;;5.03;1.58;;;;;;;33.34;20.69;100692.19;5589247;31;34248;-65
2022/05/05 13:33:47;;;;;;;4.07;1.48;;;;;;;32.73;20.99;100688.88;5589229;31;34202;-66
2022/05/05 13:36:50;;;;;;;2.67;1.60;;;;;;;33.29;20.61;100690.41;5589334;31;34187;-66
2022/05/05 13:39:52;;;;;;;3.60;1.70;;;;;;;32.41;21.91;100701.87;5589055;31;35400;-65
2022/05/05 13:42:56;;;;;;;6.15;1.77;;;;;;;33.54;20.63;100691.72;5589120;31;34219;-66
2022/05/05 13:45:59;;;;;;;3.55;1.80;;;;;;;34.71;20.52;100679.16;5588664;31;34126;-66
2022/05/05 13:49:02;;;;;;;8.48;1.70;;;;;;;34.74;19.80;100670.28;5587838;31;32994;-65
2022/05/05 13:52:05;;;;;;;3.35;1.70;;;;;;;34.60;20.42;100672.34;5588799;31;34200;-67
2022/05/05 13:55:13;;;;;;;6.53;1.60;;;;;;;33.54;21.07;100681.53;5587647;31;32705;-66
2022/05/05 13:58:16;;;;;;;2.83;1.60;;;;;;;34.14;20.54;100669.22;5588723;31;34239;-66
2022/05/05 14:01:20;;;;;;;1.90;1.40;;;;;;;32.59;20.39;100681.72;5588853;31;34244;-66
2022/05/05 14:04:24;;;;;;;3.30;1.42;;;;;;;32.08;21.79;100680.00;5588709;31;34177;-66
2022/05/05 14:14:09;;;;;;;3.60;1.40;;;;;;;32.96;21.43;100654.03;5587375;31;33020;-65
2022/05/05 14:17:13;;;;;;;6.10;1.62;;;;;;;33.07;21.86;100660.87;5587824;31;32855;-66
2022/05/05 14:20:17;;;;;;;11.68;2.08;;;;;;;32.30;22.39;100660.09;5587803;31;34444;-67
2022/05/05 14:23:20;;;;;;;1.85;1.50;;;;;;;32.73;22.59;100658.66;5587146;31;33140;-66
2022/05/05 14:26:22;;;;;;;2.45;1.50;;;;;;;32.08;23.32;100657.22;5587622;31;34511;-65
2022/05/05 14:29:25;;;;;;;2.78;1.62;;;;;;;30.89;23.02;100650.37;5587713;31;33355;-66
2022/05/05 14:32:28;;;;;;;4.80;2.25;;;;;;;28.80;25.18;100657.31;5588038;31;34430;-66
2022/05/05 14:35:32;;;;;;;2.37;1.90;;;;;;;27.17;27.62;100651.28;5587083;31;34798;-66
2022/05/05 14:38:34;;;;;;;3.62;1.83;;;;;;;26.25;29.17;100652.06;5587992;31;34132;-66
2022/05/05 14:41:37;;;;;;;3.12;1.73;;;;;;;25.99;29.58;100650.25;5587924;31;34688;-66
2022/05/05 14:44:40;;;;;;;2.42;1.70;;;;;;;25.76;30.23;100654.16;5587566;31;34182;-67
2022/05/05 14:47:44;;;;;;;3.55;1.80;;;;;;;25.87;30.56;100655.88;5587558;31;34822;-66
2022/05/05 14:50:46;;;;;;;2.40;1.80;;;;;;;26.44;31.32;100649.69;5587604;31;34937;-65
2022/05/05 14:53:50;;;;;;;4.78;1.62;;;;;;;26.33;30.86;100657.00;5586247;31;33924;-66
2022/05/05 14:56:55;;;;;;;6.68;1.90;;;;;;;26.61;29.64;100660.37;5587003;31;34448;-66
2022/05/05 14:59:58;;;;;;;2.55;1.65;;;;;;;26.75;30.17;100659.62;5586606;31;33872;-67
2022/05/05 15:03:01;;;;;;;2.78;1.80;;;;;;;27.78;28.18;100662.22;5586700;31;34831;-65
2022/05/05 15:06:04;;;;;;;4.15;1.87;;;;;;;28.83;27.00;100657.56;5586171;31;33557;-66